Paxton, South Dakota
Current Conditions -  °F | °C
As of 12:53 PM on Friday 24 Oct 2014 (Local Time) from KICR Reporting Station
Clear Clear  
Wind Chill: 71°   Ceiling: Unl
Heat Index: 71°   Visibility: NA
Dew Point: 31°   Wind: 0mph
Humidity: 23%   Direction: NA
Pressure: 29.95"   Gusts: NA
Location:  43.2341°N, 99.5045°W
Report Text: KICR 241753Z AUTO 00000KT CLR 22/M01 A2995 RMK AO2 SLPNO 6//// T02171006 $
Loading
Personal Weather Stations






























Interactive Weather Map
Tropical Storm Tracking
New forecast layout! Learn more

10-Day Weather Forecast

Advertisements
Track Severe Weather on mobile